Etusivu
METAR-TAF:

METAR-TAF

Lentoasemat :

Hannibal, Missouri, Yhdysvallat

Leveyspiiri: 39-43-31N, Pituuspiiri: 091-26-38W, korkeus merenpinnasta: 234 m

Tämänhetkinen sää

Tämä raportti tehtiin 17 minuuttia sitten, kello 18.35 UTC
Tuuli 5 kn lännestä/lounaasta
Lämpötila -6°C
Kosteus 38%
Ilmanpaine 1036 hPa
Näkyvyys: 16.1 km
selkeää

METAR: KHAE 121835Z AUTO 25005KT 10SM CLR M06/M18 A3058 RMK AO2

Aika: 12:52 (18:52 UTC)


TAF: puuttuu

Säähavainnot ja -ennusteet yli 4000 lentoasemalta (METAR- ja TAF-raportit).

Käytössä olevat sääasemat on merkitty karttaan keltaisilla ja punaisilla pisteillä.

Aseta hiiri pisteen päälle nähdäksesi sääaseman nimen.

Klikkaa sitten nähdäksesi säähavainnot ja -ennusteet.

Kartan vaihtaminen: klikkaa mustalla rastilla varustettuja vihreitä pisteitä, niin voit zoomata sisään; viivalla varustettua vihreää pistettä, niin voit zoomata ulos tai vihreitä nuolia, niin pääset viereisille kartoille.


METAR-TAF: